Time;durP1;ratioP1;P1;durP2;ratioP2;P2;SDS_P1;SDS_P2;PMS_P1;PMS_P2;Temp;Humidity;BMP_temperature;BMP_pressure;BME280_temperature;BME280_humidity;BME280_pressure;Samples;Min_cycle;Max_cycle;Signal;HPM_P1;HPM_P2
2022/04/24 00:00:16;;;;;;;;;;;;;;;;;;5116752;28;20913;-43
2022/04/24 00:02:41;;;;;;;;;;;;;;;;;;5118492;28;19908;-43
2022/04/24 00:05:07;;;;;;;;;;;;;;;;;;5116921;28;20381;-43
2022/04/24 00:07:32;;;;;;;;;;;;;;;;;;5117611;28;19912;-43
2022/04/24 00:09:57;;;;;;;;;;;;;;;;;;5117643;28;19904;-45
2022/04/24 00:12:22;;;;;;;;;;;;;;;;;;5117917;28;19912;-45
2022/04/24 00:14:47;;;;;;;;;;;;;;;;;;5117714;28;19998;-42
2022/04/24 00:17:12;;;;;;;;;;;;;;;;;;5118022;28;20010;-44
2022/04/24 00:19:37;;;;;;;;;;;;;;;;;;5117459;28;19916;-46
2022/04/24 00:22:02;;;;;;;;;;;;;;;;;;5117861;28;19912;-43
2022/04/24 00:24:28;;;;;;;;;;;;;;;;;;5115699;28;19919;-44
2022/04/24 00:26:54;;;;;;;;;;;;;;;;;;5102438;28;20319;-45
2022/04/24 00:29:19;;;;;;;;;;;;;;;;;;5117657;28;20373;-44
2022/04/24 00:31:44;;;;;;;;;;;;;;;;;;5117692;28;19912;-43
2022/04/24 00:34:09;;;;;;;;;;;;;;;;;;5117714;28;19908;-44
2022/04/24 00:36:34;;;;;;;;;;;;;;;;;;5117616;28;19908;-44
2022/04/24 00:38:59;;;;;;;;;;;;;;;;;;5118025;28;19911;-43
2022/04/24 00:41:25;;;;;;;;;;;;;;;;;;5117530;28;20274;-45
2022/04/24 00:43:52;;;;;;;;;;;;;;;;;;5117311;28;19912;-43
2022/04/24 00:46:17;;;;;;;;;;;;;;;;;;5117282;28;19908;-44
2022/04/24 00:48:42;;;;;;;;;;;;;;;;;;5117504;28;19918;-44
2022/04/24 00:51:07;;;;;;;;;;;;;;;;;;5117303;28;20023;-43
2022/04/24 00:53:32;;;;;;;;;;;;;;;;;;5117155;28;19908;-43
2022/04/24 00:55:57;;;;;;;;;;;;;;;;;;5104885;28;19965;-45
2022/04/24 00:58:22;;;;;;;;;;;;;;;;;;5096722;28;19986;-44
2022/04/24 01:00:48;;;;;;;;;;;;;;;;;;5096604;28;19912;-43
2022/04/24 01:03:13;;;;;;;;;;;;;;;;;;5096806;28;20286;-44
2022/04/24 01:05:38;;;;;;;;;;;;;;;;;;5096821;28;19908;-44
2022/04/24 01:08:03;;;;;;;;;;;;;;;;;;5096764;28;20282;-43
2022/04/24 01:10:29;;;;;;;;;;;;;;;;;;5096832;28;19912;-44
2022/04/24 01:12:54;;;;;;;;;;;;;;;;;;5096645;28;20324;-43
2022/04/24 01:15:19;;;;;;;;;;;;;;;;;;5096769;28;19908;-43
2022/04/24 01:17:44;;;;;;;;;;;;;;;;;;5096139;28;20264;-44
2022/04/24 01:20:09;;;;;;;;;;;;;;;;;;5096284;28;20098;-44
2022/04/24 01:22:34;;;;;;;;;;;;;;;;;;5096507;28;19987;-44
2022/04/24 01:24:59;;;;;;;;;;;;;;;;;;5096265;28;19919;-43
2022/04/24 01:27:24;;;;;;;;;;;;;;;;;;5103475;28;19911;-45
2022/04/24 01:29:50;;;;;;;;;;;;;;;;;;5115522;28;19919;-44
2022/04/24 01:32:16;;;;;;;;;;;;;;;;;;5116519;28;19919;-43
2022/04/24 01:34:41;;;;;;;;;;;;;;;;;;5116460;28;19930;-43
2022/04/24 01:37:06;;;;;;;;;;;;;;;;;;5116540;28;19931;-45
2022/04/24 01:39:31;;;;;;;;;;;;;;;;;;5115276;28;19973;-46
2022/04/24 01:41:56;;;;;;;;;;;;;;;;;;5116380;28;19914;-43
2022/04/24 01:44:21;;;;;;;;;;;;;;;;;;5115142;28;19911;-43
2022/04/24 01:46:46;;;;;;;;;;;;;;;;;;5116505;28;19907;-43
2022/04/24 01:49:11;;;;;;;;;;;;;;;;;;5116278;28;19912;-43
2022/04/24 01:51:36;;;;;;;;;;;;;;;;;;5116129;28;19965;-44
2022/04/24 01:54:01;;;;;;;;;;;;;;;;;;5116387;28;19950;-45
2022/04/24 01:56:29;;;;;;;;;;;;;;;;;;5099426;28;20016;-43
2022/04/24 01:58:54;;;;;;;;;;;;;;;;;;5095775;28;19912;-43
2022/04/24 02:01:19;;;;;;;;;;;;;;;;;;5096092;28;20286;-44
2022/04/24 02:03:44;;;;;;;;;;;;;;;;;;5095781;28;19908;-43
2022/04/24 02:06:09;;;;;;;;;;;;;;;;;;5095502;28;19963;-44
2022/04/24 02:08:36;;;;;;;;;;;;;;;;;;5095755;28;20375;-44
2022/04/24 02:11:01;;;;;;;;;;;;;;;;;;5102789;28;20387;-43
2022/04/24 02:13:26;;;;;;;;;;;;;;;;;;5115228;28;19926;-43
2022/04/24 02:15:51;;;;;;;;;;;;;;;;;;5115885;28;20347;-44
2022/04/24 02:18:17;;;;;;;;;;;;;;;;;;5116070;28;20501;-44
2022/04/24 02:20:42;;;;;;;;;;;;;;;;;;5115799;28;19964;-43
2022/04/24 02:23:08;;;;;;;;;;;;;;;;;;5115790;28;20369;-44
2022/04/24 02:25:33;;;;;;;;;;;;;;;;;;5103698;28;19915;-43
2022/04/24 02:27:58;;;;;;;;;;;;;;;;;;5095573;28;19911;-42
2022/04/24 02:30:23;;;;;;;;;;;;;;;;;;5099071;28;19908;-43
2022/04/24 02:32:48;;;;;;;;;;;;;;;;;;5099478;28;19919;-44
2022/04/24 02:35:14;;;;;;;;;;;;;;;;;;5099802;28;19990;-43
2022/04/24 02:37:39;;;;;;;;;;;;;;;;;;5099522;28;19908;-44
2022/04/24 02:40:04;;;;;;;;;;;;;;;;;;5099539;28;19908;-44
2022/04/24 02:42:29;;;;;;;;;;;;;;;;;;5099744;28;20074;-44
2022/04/24 02:44:54;;;;;;;;;;;;;;;;;;5098206;28;20375;-44
2022/04/24 02:47:19;;;;;;;;;;;;;;;;;;5099414;28;19915;-45
2022/04/24 02:49:44;;;;;;;;;;;;;;;;;;5099440;28;20300;-44
2022/04/24 02:52:09;;;;;;;;;;;;;;;;;;5099385;28;19912;-45
2022/04/24 02:54:35;;;;;;;;;;;;;;;;;;5100450;28;19908;-44
2022/04/24 02:57:00;;;;;;;;;;;;;;;;;;5100193;28;19923;-43
2022/04/24 02:59:25;;;;;;;;;;;;;;;;;;5098996;28;19920;-42
2022/04/24 03:01:51;;;;;;;;;;;;;;;;;;5098870;28;19946;-43
2022/04/24 03:04:16;;;;;;;;;;;;;;;;;;5099089;28;19911;-42
2022/04/24 03:06:41;;;;;;;;;;;;;;;;;;5099154;28;19908;-44
2022/04/24 03:09:06;;;;;;;;;;;;;;;;;;5099184;28;19908;-43
2022/04/24 03:11:32;;;;;;;;;;;;;;;;;;5098652;28;20252;-45
2022/04/24 03:13:57;;;;;;;;;;;;;;;;;;5098963;28;19991;-42
2022/04/24 03:16:22;;;;;;;;;;;;;;;;;;5098637;28;19912;-43
2022/04/24 03:18:47;;;;;;;;;;;;;;;;;;5098521;28;19908;-43
2022/04/24 03:21:12;;;;;;;;;;;;;;;;;;5098666;28;20294;-44
2022/04/24 03:23:37;;;;;;;;;;;;;;;;;;5098775;28;19909;-43
2022/04/24 03:26:02;;;;;;;;;;;;;;;;;;5111687;28;19919;-43
2022/04/24 03:28:28;;;;;;;;;;;;;;;;;;5101085;28;19916;-44
2022/04/24 03:30:53;;;;;;;;;;;;;;;;;;5096924;28;19912;-43
2022/04/24 03:33:18;;;;;;;;;;;;;;;;;;5098805;28;19908;-43
2022/04/24 03:35:43;;;;;;;;;;;;;;;;;;5098596;28;19915;-43
2022/04/24 03:38:08;;;;;;;;;;;;;;;;;;5098699;28;19915;-43
2022/04/24 03:40:33;;;;;;;;;;;;;;;;;;5098243;28;19908;-43
2022/04/24 03:42:58;;;;;;;;;;;;;;;;;;5097983;28;19908;-44
2022/04/24 03:45:23;;;;;;;;;;;;;;;;;;5098207;28;20269;-44
2022/04/24 03:47:49;;;;;;;;;;;;;;;;;;5098009;28;19908;-43
2022/04/24 03:50:14;;;;;;;;;;;;;;;;;;5097993;28;20262;-44
2022/04/24 03:52:39;;;;;;;;;;;;;;;;;;5098426;28;19912;-44
2022/04/24 03:55:04;;;;;;;;;;;;;;;;;;5107141;28;20002;-44
2022/04/24 03:57:30;;;;;;;;;;;;;;;;;;5118606;28;19908;-44
2022/04/24 03:59:55;;;;;;;;;;;;;;;;;;5116931;28;20418;-42
2022/04/24 04:02:20;;;;;;;;;;;;;;;;;;5118021;28;20259;-43
2022/04/24 04:04:45;;;;;;;;;;;;;;;;;;5118119;28;20363;-44
2022/04/24 04:07:10;;;;;;;;;;;;;;;;;;5118265;28;19995;-43
2022/04/24 04:09:36;;;;;;;;;;;;;;;;;;5118362;28;20430;-43
2022/04/24 04:12:01;;;;;;;;;;;;;;;;;;5118117;28;19916;-46
2022/04/24 04:14:26;;;;;;;;;;;;;;;;;;5118084;28;19908;-42
2022/04/24 04:16:51;;;;;;;;;;;;;;;;;;5118505;28;19914;-44
2022/04/24 04:19:16;;;;;;;;;;;;;;;;;;5118355;28;19908;-43
2022/04/24 04:21:43;;;;;;;;;;;;;;;;;;5118025;28;19946;-42
2022/04/24 04:24:08;;;;;;;;;;;;;;;;;;5116359;28;20003;-42
2022/04/24 04:26:33;;;;;;;;;;;;;;;;;;5097456;28;19952;-43
2022/04/24 04:28:58;;;;;;;;;;;;;;;;;;5097589;28;19908;-43
2022/04/24 04:31:23;;;;;;;;;;;;;;;;;;5097273;28;20431;-43
2022/04/24 04:33:48;;;;;;;;;;;;;;;;;;5097403;28;19915;-43
2022/04/24 04:36:13;;;;;;;;;;;;;;;;;;5097288;28;19915;-44
2022/04/24 04:38:39;;;;;;;;;;;;;;;;;;5097550;28;19908;-43
2022/04/24 04:41:04;;;;;;;;;;;;;;;;;;5097563;28;19915;-43
2022/04/24 04:43:29;;;;;;;;;;;;;;;;;;5099938;28;19978;-43
2022/04/24 04:45:54;;;;;;;;;;;;;;;;;;5117772;28;19939;-42
2022/04/24 04:48:19;;;;;;;;;;;;;;;;;;5117610;28;19908;-43
2022/04/24 04:50:44;;;;;;;;;;;;;;;;;;5117508;28;20404;-43
2022/04/24 04:53:10;;;;;;;;;;;;;;;;;;5116653;28;19908;-43
2022/04/24 04:55:35;;;;;;;;;;;;;;;;;;5117106;28;20018;-44
2022/04/24 04:58:00;;;;;;;;;;;;;;;;;;5117192;28;20360;-45
2022/04/24 05:00:25;;;;;;;;;;;;;;;;;;5117204;28;19904;-45
2022/04/24 05:02:50;;;;;;;;;;;;;;;;;;5117300;28;20294;-45
2022/04/24 05:05:15;;;;;;;;;;;;;;;;;;5116949;28;19908;-44
2022/04/24 05:07:40;;;;;;;;;;;;;;;;;;5117551;28;19915;-43
2022/04/24 05:10:06;;;;;;;;;;;;;;;;;;5117675;28;19908;-43
2022/04/24 05:12:31;;;;;;;;;;;;;;;;;;5117054;28;19916;-44
2022/04/24 05:14:56;;;;;;;;;;;;;;;;;;5104163;28;19912;-43
2022/04/24 05:17:21;;;;;;;;;;;;;;;;;;5096670;28;20093;-43
2022/04/24 05:19:46;;;;;;;;;;;;;;;;;;5096830;28;19919;-43
2022/04/24 05:22:11;;;;;;;;;;;;;;;;;;5096361;28;19912;-43
2022/04/24 05:24:36;;;;;;;;;;;;;;;;;;5096571;28;19971;-43
2022/04/24 05:27:02;;;;;;;;;;;;;;;;;;5096793;28;19915;-43
2022/04/24 05:29:27;;;;;;;;;;;;;;;;;;5096370;28;19912;-44
2022/04/24 05:31:52;;;;;;;;;;;;;;;;;;5096675;28;20012;-45
2022/04/24 05:34:17;;;;;;;;;;;;;;;;;;5096417;28;20351;-44
2022/04/24 05:36:42;;;;;;;;;;;;;;;;;;5096411;28;20313;-43
2022/04/24 05:39:08;;;;;;;;;;;;;;;;;;5096055;28;19912;-43
2022/04/24 05:41:33;;;;;;;;;;;;;;;;;;5096257;28;19954;-43
2022/04/24 05:43:58;;;;;;;;;;;;;;;;;;5100511;28;19911;-42
2022/04/24 05:46:23;;;;;;;;;;;;;;;;;;5116977;28;19933;-44
2022/04/24 05:48:48;;;;;;;;;;;;;;;;;;5116467;28;20002;-43
2022/04/24 05:51:13;;;;;;;;;;;;;;;;;;5116362;28;19922;-43
2022/04/24 05:53:38;;;;;;;;;;;;;;;;;;5116342;28;19915;-43
2022/04/24 05:56:03;;;;;;;;;;;;;;;;;;5116002;28;19951;-44
2022/04/24 05:58:29;;;;;;;;;;;;;;;;;;5116267;28;19911;-42
2022/04/24 06:00:54;;;;;;;;;;;;;;;;;;5115965;28;19912;-42
2022/04/24 06:03:19;;;;;;;;;;;;;;;;;;5115678;28;20333;-42
2022/04/24 06:05:44;;;;;;;;;;;;;;;;;;5115669;28;20415;-41
2022/04/24 06:08:09;;;;;;;;;;;;;;;;;;5115385;28;19968;-44
2022/04/24 06:10:36;;;;;;;;;;;;;;;;;;5107008;28;19912;-44
2022/04/24 06:13:01;;;;;;;;;;;;;;;;;;5095043;28;19915;-44
2022/04/24 06:15:26;;;;;;;;;;;;;;;;;;5095058;28;19913;-43
2022/04/24 06:17:51;;;;;;;;;;;;;;;;;;5095555;28;19912;-42
2022/04/24 06:20:16;;;;;;;;;;;;;;;;;;5095129;28;19976;-43
2022/04/24 06:22:42;;;;;;;;;;;;;;;;;;5095008;28;19919;-44
2022/04/24 06:25:07;;;;;;;;;;;;;;;;;;5094577;28;20378;-43
2022/04/24 06:27:32;;;;;;;;;;;;;;;;;;5095521;28;19916;-44
2022/04/24 06:29:58;;;;;;;;;;;;;;;;;;5095185;28;19904;-43
2022/04/24 06:32:23;;;;;;;;;;;;;;;;;;5094854;28;19912;-43
2022/04/24 06:34:48;;;;;;;;;;;;;;;;;;5093657;28;19908;-44
2022/04/24 06:37:13;;;;;;;;;;;;;;;;;;5095278;28;20350;-44
2022/04/24 06:39:38;;;;;;;;;;;;;;;;;;5095206;28;20283;-43
2022/04/24 06:42:03;;;;;;;;;;;;;;;;;;5095048;28;19915;-44
2022/04/24 06:44:28;;;;;;;;;;;;;;;;;;5094793;28;20283;-45
2022/04/24 06:46:54;;;;;;;;;;;;;;;;;;5094944;28;20485;-44
2022/04/24 06:49:19;;;;;;;;;;;;;;;;;;5094861;28;19908;-43
2022/04/24 06:51:44;;;;;;;;;;;;;;;;;;5094598;28;19923;-44
2022/04/24 06:54:09;;;;;;;;;;;;;;;;;;5094596;28;19915;-44
2022/04/24 06:56:34;;;;;;;;;;;;;;;;;;5094511;28;20274;-44
2022/04/24 06:58:59;;;;;;;;;;;;;;;;;;5094611;28;20274;-45
2022/04/24 07:01:26;;;;;;;;;;;;;;;;;;5094843;28;19931;-44
2022/04/24 07:03:51;;;;;;;;;;;;;;;;;;5094887;28;19919;-44
2022/04/24 07:06:16;;;;;;;;;;;;;;;;;;5094791;28;19909;-45
2022/04/24 07:08:41;;;;;;;;;;;;;;;;;;5093501;28;19956;-44
2022/04/24 07:11:07;;;;;;;;;;;;;;;;;;5094945;28;19969;-44
2022/04/24 07:13:32;;;;;;;;;;;;;;;;;;5094705;28;19908;-44
2022/04/24 07:15:57;;;;;;;;;;;;;;;;;;5097148;28;19977;-44
2022/04/24 07:18:22;;;;;;;;;;;;;;;;;;5098482;28;20319;-43
2022/04/24 07:20:47;;;;;;;;;;;;;;;;;;5098785;28;19908;-43
2022/04/24 07:23:12;;;;;;;;;;;;;;;;;;5098733;28;19912;-43
2022/04/24 07:25:44;;;;;;;;;;;;;;;;;;5099543;28;19912;-43
2022/04/24 07:28:09;;;;;;;;;;;;;;;;;;5098522;28;20291;-44
2022/04/24 07:30:34;;;;;;;;;;;;;;;;;;5098307;28;19920;-43
2022/04/24 07:32:59;;;;;;;;;;;;;;;;;;5098184;28;19916;-45
2022/04/24 07:35:25;;;;;;;;;;;;;;;;;;5098179;28;20420;-43
2022/04/24 07:37:50;;;;;;;;;;;;;;;;;;5097336;28;19920;-43
2022/04/24 07:40:15;;;;;;;;;;;;;;;;;;5097710;28;19919;-44
2022/04/24 07:42:40;;;;;;;;;;;;;;;;;;5097836;28;20239;-44
2022/04/24 07:45:05;;;;;;;;;;;;;;;;;;5097620;28;19947;-44
2022/04/24 07:47:30;;;;;;;;;;;;;;;;;;5097685;28;19952;-43
2022/04/24 07:49:55;;;;;;;;;;;;;;;;;;5097561;28;19948;-43
2022/04/24 07:52:20;;;;;;;;;;;;;;;;;;5097485;28;19912;-44
2022/04/24 07:54:46;;;;;;;;;;;;;;;;;;5096710;28;19934;-43
2022/04/24 07:57:11;;;;;;;;;;;;;;;;;;5097678;28;19912;-45
2022/04/24 07:59:36;;;;;;;;;;;;;;;;;;5097411;28;19995;-43
2022/04/24 08:02:01;;;;;;;;;;;;;;;;;;5096123;28;19908;-44
2022/04/24 08:04:26;;;;;;;;;;;;;;;;;;5097131;28;19908;-44
2022/04/24 08:06:51;;;;;;;;;;;;;;;;;;5097299;28;19929;-44
2022/04/24 08:09:17;;;;;;;;;;;;;;;;;;5097194;28;20013;-44
2022/04/24 08:11:42;;;;;;;;;;;;;;;;;;5096971;28;19962;-43
2022/04/24 08:14:07;;;;;;;;;;;;;;;;;;5096849;28;19935;-43
2022/04/24 08:16:32;;;;;;;;;;;;;;;;;;5097035;28;20382;-44
2022/04/24 08:19:01;;;;;;;;;;;;;;;;;;5097058;28;19913;-44
2022/04/24 08:21:26;;;;;;;;;;;;;;;;;;5097051;28;20022;-43
2022/04/24 08:23:51;;;;;;;;;;;;;;;;;;5097292;28;19908;-44
2022/04/24 08:26:17;;;;;;;;;;;;;;;;;;5116042;28;19912;-44
2022/04/24 08:28:42;;;;;;;;;;;;;;;;;;5117381;28;20007;-45
2022/04/24 08:31:07;;;;;;;;;;;;;;;;;;5111484;28;19920;-43
2022/04/24 08:33:32;;;;;;;;;;;;;;;;;;5095664;28;19909;-43
2022/04/24 08:35:58;;;;;;;;;;;;;;;;;;5096690;28;20379;-44
2022/04/24 08:38:23;;;;;;;;;;;;;;;;;;5096670;28;19950;-44
2022/04/24 08:40:48;;;;;;;;;;;;;;;;;;5095012;28;19915;-44
2022/04/24 08:43:14;;;;;;;;;;;;;;;;;;5096371;28;19916;-43
2022/04/24 08:45:39;;;;;;;;;;;;;;;;;;5096352;28;19909;-44
2022/04/24 08:48:04;;;;;;;;;;;;;;;;;;5096107;28;19908;-45
2022/04/24 08:50:29;;;;;;;;;;;;;;;;;;5096100;28;20386;-44
2022/04/24 08:52:56;;;;;;;;;;;;;;;;;;5096070;28;19912;-43
2022/04/24 08:55:21;;;;;;;;;;;;;;;;;;5103349;28;19915;-43
2022/04/24 08:57:46;;;;;;;;;;;;;;;;;;5116367;28;19953;-44
2022/04/24 09:00:11;;;;;;;;;;;;;;;;;;5116410;28;19908;-45
2022/04/24 09:02:36;;;;;;;;;;;;;;;;;;5116323;28;19912;-45
2022/04/24 09:05:03;;;;;;;;;;;;;;;;;;5116488;28;19911;-44
2022/04/24 09:07:29;;;;;;;;;;;;;;;;;;5116218;28;19908;-44
2022/04/24 09:09:54;;;;;;;;;;;;;;;;;;5116340;28;19915;-44
2022/04/24 09:12:19;;;;;;;;;;;;;;;;;;5116056;28;19916;-44
2022/04/24 09:14:44;;;;;;;;;;;;;;;;;;5115959;28;19915;-44
2022/04/24 09:17:09;;;;;;;;;;;;;;;;;;5116080;28;19908;-44
2022/04/24 09:19:36;;;;;;;;;;;;;;;;;;5116109;28;19908;-43
2022/04/24 09:22:01;;;;;;;;;;;;;;;;;;5115928;28;19947;-44
2022/04/24 09:24:26;;;;;;;;;;;;;;;;;;5111468;28;20407;-44
2022/04/24 09:26:51;;;;;;;;;;;;;;;;;;5095689;28;20349;-44
2022/04/24 09:29:16;;;;;;;;;;;;;;;;;;5095545;28;19999;-44
2022/04/24 09:31:41;;;;;;;;;;;;;;;;;;5095482;28;20333;-44
2022/04/24 09:34:06;;;;;;;;;;;;;;;;;;5095458;28;19994;-44
2022/04/24 09:36:31;;;;;;;;;;;;;;;;;;5095331;28;19912;-44
2022/04/24 09:38:56;;;;;;;;;;;;;;;;;;5095043;28;20003;-45
2022/04/24 09:41:22;;;;;;;;;;;;;;;;;;5095291;28;19912;-45
2022/04/24 09:43:47;;;;;;;;;;;;;;;;;;5095223;28;19915;-46
2022/04/24 09:46:12;;;;;;;;;;;;;;;;;;5095220;28;20006;-45
2022/04/24 09:48:37;;;;;;;;;;;;;;;;;;5095228;28;19908;-45
2022/04/24 09:51:02;;;;;;;;;;;;;;;;;;5095062;28;19912;-45
2022/04/24 09:53:27;;;;;;;;;;;;;;;;;;5095166;28;19958;-44
2022/04/24 09:55:52;;;;;;;;;;;;;;;;;;5093292;28;19921;-44
2022/04/24 09:58:17;;;;;;;;;;;;;;;;;;5094984;28;19909;-43
2022/04/24 10:00:44;;;;;;;;;;;;;;;;;;5095049;28;20347;-44
2022/04/24 10:03:09;;;;;;;;;;;;;;;;;;5095123;28;19930;-44
2022/04/24 10:05:34;;;;;;;;;;;;;;;;;;5093778;28;20379;-44
2022/04/24 10:07:59;;;;;;;;;;;;;;;;;;5095004;28;19908;-43
2022/04/24 10:10:24;;;;;;;;;;;;;;;;;;5095098;28;19976;-43
2022/04/24 10:12:50;;;;;;;;;;;;;;;;;;5094910;28;19912;-43
2022/04/24 10:15:16;;;;;;;;;;;;;;;;;;5095108;28;20247;-44
2022/04/24 10:17:42;;;;;;;;;;;;;;;;;;5095125;28;20375;-44
2022/04/24 10:20:07;;;;;;;;;;;;;;;;;;5095062;28;19912;-43
2022/04/24 10:22:33;;;;;;;;;;;;;;;;;;5094986;28;20351;-43
2022/04/24 10:24:58;;;;;;;;;;;;;;;;;;5099650;28;19919;-43
2022/04/24 10:27:23;;;;;;;;;;;;;;;;;;5115270;28;19907;-44
2022/04/24 10:29:48;;;;;;;;;;;;;;;;;;5115433;28;19951;-43
2022/04/24 10:32:13;;;;;;;;;;;;;;;;;;5115270;28;19912;-45
2022/04/24 10:34:39;;;;;;;;;;;;;;;;;;5115450;28;19908;-42
2022/04/24 10:37:05;;;;;;;;;;;;;;;;;;5115329;28;19931;-45
2022/04/24 10:39:30;;;;;;;;;;;;;;;;;;5115540;28;19915;-44
2022/04/24 10:41:55;;;;;;;;;;;;;;;;;;5115571;28;19911;-45
2022/04/24 10:44:20;;;;;;;;;;;;;;;;;;5115200;28;19908;-44
2022/04/24 10:46:45;;;;;;;;;;;;;;;;;;5115187;28;19999;-43
2022/04/24 10:49:10;;;;;;;;;;;;;;;;;;5115351;28;20313;-43
2022/04/24 10:51:36;;;;;;;;;;;;;;;;;;5118880;28;19915;-44
2022/04/24 10:54:01;;;;;;;;;;;;;;;;;;5118707;28;19916;-44
2022/04/24 10:56:26;;;;;;;;;;;;;;;;;;5100644;22;19967;-44
2022/04/24 10:58:52;;;;;;;;;;;;;;;;;;5098458;28;19962;-44
2022/04/24 11:01:17;;;;;;;;;;;;;;;;;;5098572;28;19907;-45
2022/04/24 11:03:43;;;;;;;;;;;;;;;;;;5098725;28;19916;-43
2022/04/24 11:06:08;;;;;;;;;;;;;;;;;;5098470;28;20329;-44
2022/04/24 11:08:33;;;;;;;;;;;;;;;;;;5098354;28;19904;-44
2022/04/24 11:10:58;;;;;;;;;;;;;;;;;;5098346;28;19915;-43
2022/04/24 11:13:25;;;;;;;;;;;;;;;;;;5098213;28;19909;-44
2022/04/24 11:15:50;;;;;;;;;;;;;;;;;;5098178;28;19908;-43
2022/04/24 11:18:15;;;;;;;;;;;;;;;;;;5097876;28;20355;-43
2022/04/24 11:20:41;;;;;;;;;;;;;;;;;;5098057;28;20041;-43
2022/04/24 11:23:07;;;;;;;;;;;;;;;;;;5096625;28;20382;-43
2022/04/24 11:25:32;;;;;;;;;;;;;;;;;;5111984;28;19919;-43
2022/04/24 11:27:58;;;;;;;;;;;;;;;;;;5118189;28;20274;-44
2022/04/24 11:30:26;;;;;;;;;;;;;;;;;;5118232;28;19970;-43
2022/04/24 11:32:51;;;;;;;;;;;;;;;;;;5118166;28;19911;-43
2022/04/24 11:35:17;;;;;;;;;;;;;;;;;;5118412;28;19923;-43
2022/04/24 11:37:42;;;;;;;;;;;;;;;;;;5116990;28;19907;-43
2022/04/24 11:40:07;;;;;;;;;;;;;;;;;;5118096;28;19907;-42
2022/04/24 11:42:32;;;;;;;;;;;;;;;;;;5118205;28;19932;-43
2022/04/24 11:50:25;;;;;;;;;;;;;;;;;;5117924;28;20385;-43
2022/04/24 11:52:50;;;;;;;;;;;;;;;;;;5117831;28;19943;-44
2022/04/24 11:55:15;;;;;;;;;;;;;;;;;;5117296;28;20380;-43
2022/04/24 11:57:40;;;;;;;;;;;;;;;;;;5117343;28;20002;-46
2022/04/24 12:00:08;;;;;;;;;;;;;;;;;;5117655;28;19951;-44
2022/04/24 12:02:33;;;;;;;;;;;;;;;;;;5117417;27;19908;-43
2022/04/24 12:04:58;;;;;;;;;;;;;;;;;;5117374;28;19915;-44
2022/04/24 12:07:23;;;;;;;;;;;;;;;;;;5117321;28;19915;-43
2022/04/24 12:09:48;;;;;;;;;;;;;;;;;;5116356;28;20320;-43
2022/04/24 12:12:13;;;;;;;;;;;;;;;;;;5091591;28;19919;-43
2022/04/24 12:14:39;;;;;;;;;;;;;;;;;;5096834;28;19923;-43
2022/04/24 12:17:04;;;;;;;;;;;;;;;;;;5096763;28;19908;-43
2022/04/24 12:19:29;;;;;;;;;;;;;;;;;;5096705;28;19958;-42
2022/04/24 12:21:54;;;;;;;;;;;;;;;;;;5096736;28;19908;-42
2022/04/24 12:24:20;;;;;;;;;;;;;;;;;;5096158;28;19965;-42
2022/04/24 12:26:45;;;;;;;;;;;;;;;;;;5096468;28;19908;-42
2022/04/24 12:29:10;;;;;;;;;;;;;;;;;;5096608;28;19908;-44
2022/04/24 12:31:35;;;;;;;;;;;;;;;;;;5096397;28;20374;-43
2022/04/24 12:34:00;;;;;;;;;;;;;;;;;;5096418;28;19908;-44
2022/04/24 12:36:25;;;;;;;;;;;;;;;;;;5096273;28;20347;-47
2022/04/24 12:38:50;;;;;;;;;;;;;;;;;;5096435;28;19908;-45
2022/04/24 12:41:16;;;;;;;;;;;;;;;;;;5096277;28;19908;-44
2022/04/24 12:43:41;;;;;;;;;;;;;;;;;;5096237;28;19999;-43
2022/04/24 12:46:06;;;;;;;;;;;;;;;;;;5096085;28;19909;-42
2022/04/24 12:48:31;;;;;;;;;;;;;;;;;;5095959;28;19995;-42
2022/04/24 12:50:56;;;;;;;;;;;;;;;;;;5095978;28;19908;-44
2022/04/24 12:53:22;;;;;;;;;;;;;;;;;;5095692;28;19912;-45
2022/04/24 12:55:49;;;;;;;;;;;;;;;;;;5111817;28;20374;-44
2022/04/24 12:58:14;;;;;;;;;;;;;;;;;;5116272;28;19908;-44
2022/04/24 13:00:40;;;;;;;;;;;;;;;;;;5116279;28;20007;-44
2022/04/24 13:03:05;;;;;;;;;;;;;;;;;;5116153;28;19908;-43
2022/04/24 13:05:30;;;;;;;;;;;;;;;;;;5116274;28;19969;-42
2022/04/24 13:07:57;;;;;;;;;;;;;;;;;;5116197;28;19908;-42
2022/04/24 13:10:24;;;;;;;;;;;;;;;;;;5116165;28;19908;-43
2022/04/24 13:12:51;;;;;;;;;;;;;;;;;;5115405;28;19918;-42
2022/04/24 13:15:16;;;;;;;;;;;;;;;;;;5114774;28;19908;-43
2022/04/24 13:20:25;;;;;;;;;;;;;;;;;;5116140;28;19915;-45
2022/04/24 13:22:50;;;;;;;;;;;;;;;;;;5115872;28;19908;-44
2022/04/24 13:25:15;;;;;;;;;;;;;;;;;;5098828;28;19919;-45
2022/04/24 13:27:40;;;;;;;;;;;;;;;;;;5095932;28;19950;-44
2022/04/24 13:30:07;;;;;;;;;;;;;;;;;;5095385;28;19942;-44
2022/04/24 13:32:32;;;;;;;;;;;;;;;;;;5095438;28;19965;-44
2022/04/24 13:34:58;;;;;;;;;;;;;;;;;;5095295;28;19912;-44
2022/04/24 13:40:06;;;;;;;;;;;;;;;;;;5095117;28;20378;-43
2022/04/24 13:42:31;;;;;;;;;;;;;;;;;;5095156;28;19908;-44
2022/04/24 13:44:57;;;;;;;;;;;;;;;;;;5094989;28;19908;-44
2022/04/24 13:47:23;;;;;;;;;;;;;;;;;;5095175;28;19908;-45
2022/04/24 13:49:48;;;;;;;;;;;;;;;;;;5094919;28;20309;-43
2022/04/24 13:52:14;;;;;;;;;;;;;;;;;;5095018;28;19912;-44
2022/04/24 13:54:39;;;;;;;;;;;;;;;;;;5105762;28;19922;-44
2022/04/24 13:57:04;;;;;;;;;;;;;;;;;;5115107;28;19959;-44
2022/04/24 13:59:29;;;;;;;;;;;;;;;;;;5115203;28;19907;-44
2022/04/24 14:01:55;;;;;;;;;;;;;;;;;;5115267;28;19912;-44
2022/04/24 14:04:22;;;;;;;;;;;;;;;;;;5115129;28;19999;-44
2022/04/24 14:06:48;;;;;;;;;;;;;;;;;;5115242;28;19915;-45
2022/04/24 14:09:14;;;;;;;;;;;;;;;;;;5115347;28;19908;-44
2022/04/24 14:11:39;;;;;;;;;;;;;;;;;;5115173;28;20282;-44
2022/04/24 14:14:04;;;;;;;;;;;;;;;;;;5115074;28;20354;-44
2022/04/24 14:16:30;;;;;;;;;;;;;;;;;;5114861;28;20375;-44
2022/04/24 14:18:55;;;;;;;;;;;;;;;;;;5114885;28;19911;-44
2022/04/24 14:21:20;;;;;;;;;;;;;;;;;;5114903;28;19912;-44
2022/04/24 14:23:45;;;;;;;;;;;;;;;;;;5114600;28;19911;-47
2022/04/24 14:26:10;;;;;;;;;;;;;;;;;;5117786;28;19916;-47
2022/04/24 14:28:35;;;;;;;;;;;;;;;;;;5119151;28;20359;-43
2022/04/24 14:31:00;;;;;;;;;;;;;;;;;;5118874;28;19939;-44
2022/04/24 14:33:26;;;;;;;;;;;;;;;;;;5119113;28;19912;-44
2022/04/24 14:35:51;;;;;;;;;;;;;;;;;;5107500;28;20271;-43
2022/04/24 14:38:16;;;;;;;;;;;;;;;;;;5095185;28;19961;-43
2022/04/24 14:40:41;;;;;;;;;;;;;;;;;;5098668;28;20327;-44
2022/04/24 14:43:07;;;;;;;;;;;;;;;;;;5098575;28;19908;-44
2022/04/24 14:56:28;;;;;;;;;;;;;;;;;;5094955;28;20444;-44
2022/04/24 14:58:53;;;;;;;;;;;;;;;;;;5098084;28;19912;-42
2022/04/24 15:01:18;;;;;;;;;;;;;;;;;;5098078;28;19904;-45
2022/04/24 15:03:43;;;;;;;;;;;;;;;;;;5098087;28;20379;-45
2022/04/24 15:06:08;;;;;;;;;;;;;;;;;;5097991;28;19915;-44
2022/04/24 15:08:33;;;;;;;;;;;;;;;;;;5098226;28;19915;-43
2022/04/24 15:10:59;;;;;;;;;;;;;;;;;;5098148;28;19915;-44
2022/04/24 15:13:24;;;;;;;;;;;;;;;;;;5098015;28;20272;-44
2022/04/24 15:15:50;;;;;;;;;;;;;;;;;;5098010;28;19929;-44
2022/04/24 15:18:15;;;;;;;;;;;;;;;;;;5097990;28;19931;-43
2022/04/24 15:20:40;;;;;;;;;;;;;;;;;;5097885;28;20347;-43
2022/04/24 15:23:05;;;;;;;;;;;;;;;;;;5097832;28;20708;-44
2022/04/24 15:25:31;;;;;;;;;;;;;;;;;;5097768;28;19912;-44
2022/04/24 15:27:57;;;;;;;;;;;;;;;;;;5097781;28;19914;-45
2022/04/24 15:30:22;;;;;;;;;;;;;;;;;;5097654;28;19915;-44
2022/04/24 15:32:47;;;;;;;;;;;;;;;;;;5097514;28;19916;-44
2022/04/24 15:35:12;;;;;;;;;;;;;;;;;;5097413;28;19908;-44
2022/04/24 15:37:37;;;;;;;;;;;;;;;;;;5097266;28;19912;-44
2022/04/24 15:40:02;;;;;;;;;;;;;;;;;;5097647;28;19909;-44
2022/04/24 15:42:27;;;;;;;;;;;;;;;;;;5097256;28;19908;-44
2022/04/24 15:45:12;;;;;;;;;;;;;;;;;;5097461;28;19986;-45
2022/04/24 15:47:37;;;;;;;;;;;;;;;;;;5097411;28;20390;-45
2022/04/24 15:50:03;;;;;;;;;;;;;;;;;;5097404;28;19908;-46
2022/04/24 15:52:29;;;;;;;;;;;;;;;;;;5097293;28;20279;-43
2022/04/24 15:54:55;;;;;;;;;;;;;;;;;;5095970;28;20026;-44
2022/04/24 15:57:20;;;;;;;;;;;;;;;;;;5096840;28;19981;-43
2022/04/24 15:59:45;;;;;;;;;;;;;;;;;;5097326;28;19912;-43
2022/04/24 16:02:10;;;;;;;;;;;;;;;;;;5097111;28;20003;-43
2022/04/24 16:04:36;;;;;;;;;;;;;;;;;;5097159;28;19961;-44
2022/04/24 16:07:01;;;;;;;;;;;;;;;;;;5097012;28;20010;-43
2022/04/24 16:09:26;;;;;;;;;;;;;;;;;;5096800;28;19919;-43
2022/04/24 16:11:51;;;;;;;;;;;;;;;;;;5096684;28;19935;-44
2022/04/24 16:14:17;;;;;;;;;;;;;;;;;;5096716;28;20394;-44
2022/04/24 16:16:42;;;;;;;;;;;;;;;;;;5096693;28;19999;-43
2022/04/24 16:19:07;;;;;;;;;;;;;;;;;;5096721;28;19918;-44
2022/04/24 16:21:32;;;;;;;;;;;;;;;;;;5096849;28;19974;-44
2022/04/24 16:23:57;;;;;;;;;;;;;;;;;;5096403;28;19955;-44
2022/04/24 16:26:22;;;;;;;;;;;;;;;;;;5078898;28;19935;-44
2022/04/24 16:28:47;;;;;;;;;;;;;;;;;;5076176;28;19932;-43
2022/04/24 16:31:12;;;;;;;;;;;;;;;;;;5080082;28;20011;-44
2022/04/24 16:33:39;;;;;;;;;;;;;;;;;;5096155;28;19962;-43
2022/04/24 16:36:08;;;;;;;;;;;;;;;;;;5096541;28;19912;-43
2022/04/24 16:38:33;;;;;;;;;;;;;;;;;;5096326;28;19973;-44
2022/04/24 16:40:58;;;;;;;;;;;;;;;;;;5096345;28;20287;-43
2022/04/24 16:43:23;;;;;;;;;;;;;;;;;;5096541;28;20390;-44
2022/04/24 16:45:48;;;;;;;;;;;;;;;;;;5116088;28;19919;-43
2022/04/24 16:48:13;;;;;;;;;;;;;;;;;;5115466;28;19908;-48
2022/04/24 16:58:52;;;;;;;;;;;;;;;;;;5116274;28;19915;-46
2022/04/24 17:01:17;;;;;;;;;;;;;;;;;;5116336;28;19908;-44